Time;durP1;ratioP1;P1;durP2;ratioP2;P2;SDS_P1;SDS_P2;PMS_P1;PMS_P2;Temp;Humidity;BMP_temperature;BMP_pressure;BME280_temperature;BME280_humidity;BME280_pressure;Samples;Min_cycle;Max_cycle;Signal;HPM_P1;HPM_P2
2020/12/30 00:02:17;;;;;;;11.88;4.65;;;3.90;99.90;;;;;;5114083;27;20099;-60
2020/12/30 00:04:43;;;;;;;9.93;4.35;;;4.00;99.90;;;;;;5113821;27;20034;-61
2020/12/30 00:07:08;;;;;;;11.43;5.35;;;4.00;99.90;;;;;;5105426;28;20047;-59
2020/12/30 00:09:34;;;;;;;7.55;4.65;;;4.10;99.90;;;;;;5119991;27;20046;-62
2020/12/30 00:12:00;;;;;;;8.63;4.25;;;4.20;99.90;;;;;;5114794;27;20076;-61
2020/12/30 00:14:25;;;;;;;11.00;5.60;;;4.20;99.90;;;;;;5102160;27;20022;-60
2020/12/30 00:16:51;;;;;;;13.32;6.82;;;4.20;99.90;;;;;;5114124;27;20505;-60
2020/12/30 00:19:16;;;;;;;16.45;7.10;;;4.10;99.90;;;;;;5112187;28;20044;-62
2020/12/30 00:21:42;;;;;;;17.67;8.48;;;4.20;99.90;;;;;;5125990;27;20027;-60
2020/12/30 00:24:07;;;;;;;15.00;8.48;;;4.20;99.90;;;;;;5114921;27;20032;-59
2020/12/30 00:26:33;;;;;;;20.92;10.40;;;4.20;99.90;;;;;;5094937;28;20054;-59
2020/12/30 00:28:58;;;;;;;18.02;10.02;;;4.20;99.90;;;;;;5113104;28;20027;-60
2020/12/30 00:31:28;;;;;;;20.48;9.52;;;4.20;99.90;;;;;;5113615;28;20151;-60
2020/12/30 00:33:53;;;;;;;19.67;9.95;;;4.20;99.90;;;;;;5127390;27;20023;-62
2020/12/30 00:36:19;;;;;;;20.17;10.77;;;4.30;99.90;;;;;;5112546;28;20024;-61
2020/12/30 00:38:44;;;;;;;22.52;11.32;;;4.30;99.90;;;;;;5116556;27;20516;-60
2020/12/30 00:41:14;;;;;;;26.38;12.30;;;4.40;99.90;;;;;;5112822;27;20039;-60
2020/12/30 00:43:41;;;;;;;22.98;11.80;;;4.40;99.90;;;;;;5104612;27;20028;-61
2020/12/30 00:46:13;;;;;;;26.77;12.25;;;4.40;99.90;;;;;;5116113;27;20421;-60
2020/12/30 00:48:39;;;;;;;26.75;13.02;;;4.50;99.90;;;;;;5107691;27;20023;-60
2020/12/30 00:51:04;;;;;;;26.30;13.98;;;4.50;99.90;;;;;;5117342;27;20050;-60
2020/12/30 00:53:30;;;;;;;30.13;15.05;;;4.40;99.90;;;;;;5113941;27;20031;-60
2020/12/30 00:55:55;;;;;;;28.50;13.93;;;4.50;99.90;;;;;;5117560;27;20039;-60
2020/12/30 00:58:21;;;;;;;29.20;14.25;;;4.40;99.90;;;;;;5112252;28;20027;-60
2020/12/30 01:00:46;;;;;;;27.52;14.50;;;4.40;99.90;;;;;;5118469;27;20432;-61
2020/12/30 01:03:12;;;;;;;22.75;13.32;;;4.40;99.90;;;;;;5111016;27;20035;-61
2020/12/30 01:05:37;;;;;;;24.80;13.20;;;4.40;99.90;;;;;;5118751;27;20027;-60
2020/12/30 01:08:03;;;;;;;29.05;13.35;;;4.40;99.90;;;;;;5111043;27;20036;-61
2020/12/30 01:10:28;;;;;;;24.92;12.18;;;4.50;99.90;;;;;;5111785;28;20028;-59
2020/12/30 01:12:54;;;;;;;29.30;13.77;;;4.50;99.90;;;;;;5109658;28;20095;-60
2020/12/30 01:15:19;;;;;;;22.75;11.55;;;4.50;99.90;;;;;;5110837;27;20027;-61
2020/12/30 01:17:45;;;;;;;25.85;12.57;;;4.50;99.90;;;;;;5112469;28;20384;-60
2020/12/30 01:20:10;;;;;;;21.55;10.98;;;4.50;99.90;;;;;;5110419;28;20032;-61
2020/12/30 01:22:36;;;;;;;21.92;11.30;;;4.50;99.90;;;;;;5114757;27;20028;-60
2020/12/30 01:25:01;;;;;;;23.75;11.23;;;4.50;99.90;;;;;;5117580;27;20118;-62
2020/12/30 01:27:27;;;;;;;28.20;11.65;;;4.40;99.90;;;;;;5114629;27;20066;-60
2020/12/30 01:29:52;;;;;;;22.42;10.93;;;4.40;99.90;;;;;;5108026;27;20518;-60
2020/12/30 01:32:18;;;;;;;26.58;13.20;;;4.40;99.90;;;;;;5105611;28;20035;-60
2020/12/30 01:34:44;;;;;;;24.48;13.18;;;4.40;99.90;;;;;;5107200;27;20027;-61
2020/12/30 01:37:09;;;;;;;30.25;15.40;;;4.40;99.90;;;;;;5110228;27;20024;-60
2020/12/30 01:39:34;;;;;;;31.13;15.25;;;4.30;99.90;;;;;;5110434;27;20091;-60
2020/12/30 01:42:00;;;;;;;32.38;15.88;;;4.40;99.90;;;;;;5105204;27;20504;-60
2020/12/30 01:44:26;;;;;;;30.27;16.00;;;4.40;99.90;;;;;;5100896;28;20023;-61
2020/12/30 01:46:51;;;;;;;31.10;16.38;;;4.40;99.90;;;;;;5104259;27;20038;-64
2020/12/30 01:49:19;;;;;;;33.40;17.13;;;4.40;99.90;;;;;;5109627;28;20043;-61
2020/12/30 01:51:45;;;;;;;36.85;17.20;;;4.40;99.90;;;;;;5110826;28;20049;-61
2020/12/30 01:54:13;;;;;;;31.35;16.13;;;4.40;99.90;;;;;;5114421;28;20451;-60
2020/12/30 01:56:39;;;;;;;39.83;16.65;;;4.30;99.90;;;;;;5104059;28;20028;-60
2020/12/30 01:59:06;;;;;;;31.42;16.27;;;4.20;99.90;;;;;;5115525;27;20023;-60
2020/12/30 02:01:38;;;;;;;33.22;16.13;;;4.30;99.90;;;;;;5110343;28;20265;-60
2020/12/30 02:04:06;;;;;;;39.38;17.52;;;4.20;99.90;;;;;;5113112;27;20088;-61
2020/12/30 02:06:32;;;;;;;34.80;17.05;;;4.20;99.90;;;;;;5120106;27;20024;-62
2020/12/30 02:08:58;;;;;;;40.17;16.85;;;4.20;99.90;;;;;;5109638;28;20044;-59
2020/12/30 02:11:25;;;;;;;29.10;16.13;;;4.20;99.90;;;;;;5085782;28;20453;-62
2020/12/30 02:14:04;;;;;;;26.83;14.45;;;4.30;99.90;;;;;;5120938;27;20027;-60
2020/12/30 02:16:31;;;;;;;29.05;14.80;;;4.30;99.90;;;;;;5107809;27;20036;-61
2020/12/30 02:18:58;;;;;;;33.17;15.00;;;4.30;99.90;;;;;;5111412;28;20043;-61
2020/12/30 02:21:24;;;;;;;30.05;13.50;;;4.30;99.90;;;;;;5105441;28;20111;-61
2020/12/30 02:23:52;;;;;;;24.55;12.88;;;4.30;99.90;;;;;;5107438;27;20531;-59
2020/12/30 02:26:18;;;;;;;28.58;13.45;;;4.30;99.90;;;;;;5104493;28;20058;-63
2020/12/30 02:28:43;;;;;;;28.52;12.43;;;4.20;99.90;;;;;;5118870;27;20055;-61
2020/12/30 02:31:09;;;;;;;22.40;12.13;;;4.20;99.90;;;;;;5105275;27;20026;-61
2020/12/30 02:33:34;;;;;;;20.77;10.80;;;4.20;99.90;;;;;;5115839;27;20035;-60
2020/12/30 02:36:00;;;;;;;20.33;10.40;;;4.20;99.90;;;;;;5098944;28;20508;-61
2020/12/30 02:38:25;;;;;;;18.17;9.32;;;4.20;99.90;;;;;;5107063;27;20030;-60
2020/12/30 02:40:51;;;;;;;22.48;7.85;;;4.20;99.90;;;;;;5113107;27;20035;-60
2020/12/30 02:43:16;;;;;;;12.05;6.25;;;4.20;99.90;;;;;;5104440;27;20032;-61
2020/12/30 02:45:42;;;;;;;8.65;5.38;;;4.20;99.90;;;;;;5112808;27;20031;-61
2020/12/30 02:48:08;;;;;;;9.35;4.82;;;4.20;99.90;;;;;;5101634;28;20024;-61
2020/12/30 02:50:33;;;;;;;7.25;3.70;;;4.20;99.90;;;;;;5111211;27;20019;-60
2020/12/30 02:52:59;;;;;;;5.78;3.33;;;4.20;99.90;;;;;;5111282;27;20095;-60
2020/12/30 02:55:25;;;;;;;4.47;3.13;;;4.20;99.90;;;;;;5105382;28;20027;-59
2020/12/30 02:57:50;;;;;;;5.32;2.63;;;4.20;99.90;;;;;;5112061;28;20031;-60
2020/12/30 03:00:16;;;;;;;6.18;2.28;;;4.20;99.90;;;;;;5109849;28;20088;-62
2020/12/30 03:02:41;;;;;;;4.28;2.60;;;4.30;99.90;;;;;;5109998;28;20024;-60
2020/12/30 03:05:07;;;;;;;4.50;2.13;;;4.30;99.90;;;;;;5096172;28;20023;-60
2020/12/30 03:07:32;;;;;;;2.97;1.98;;;4.30;99.90;;;;;;5106578;28;20118;-62
2020/12/30 03:09:58;;;;;;;4.05;1.73;;;4.20;99.90;;;;;;5113045;28;20036;-60
2020/12/30 03:12:23;;;;;;;5.75;2.20;;;4.20;99.90;;;;;;5114182;28;20275;-60
2020/12/30 03:14:49;;;;;;;6.72;2.38;;;4.20;99.90;;;;;;5117329;27;20024;-60
2020/12/30 03:17:15;;;;;;;5.25;2.60;;;4.20;99.90;;;;;;5120249;27;20058;-60
2020/12/30 03:19:40;;;;;;;10.30;2.38;;;4.20;99.90;;;;;;5120407;27;20031;-61
2020/12/30 03:22:06;;;;;;;3.50;2.40;;;4.20;99.90;;;;;;5113818;28;20047;-61
2020/12/30 03:24:31;;;;;;;8.10;2.60;;;4.20;99.90;;;;;;5112210;28;20027;-60
2020/12/30 03:26:57;;;;;;;6.30;3.42;;;4.10;99.90;;;;;;5115237;27;20381;-61
2020/12/30 03:29:23;;;;;;;8.30;4.18;;;4.10;99.90;;;;;;5114344;28;20103;-61
2020/12/30 03:31:48;;;;;;;7.55;3.92;;;4.10;99.90;;;;;;5103708;28;20485;-60
2020/12/30 03:34:14;;;;;;;9.77;4.85;;;4.10;99.90;;;;;;5119843;27;20031;-60
2020/12/30 03:36:40;;;;;;;10.90;5.47;;;4.10;99.90;;;;;;5116365;27;20023;-61
2020/12/30 03:39:06;;;;;;;10.63;5.45;;;4.10;99.90;;;;;;5109312;27;20028;-61
2020/12/30 03:41:31;;;;;;;9.75;5.10;;;4.00;99.90;;;;;;5125004;27;20076;-60
2020/12/30 03:43:57;;;;;;;11.35;5.60;;;4.00;99.90;;;;;;5133217;27;20047;-60
2020/12/30 03:46:22;;;;;;;14.65;5.75;;;4.10;99.90;;;;;;5126071;27;20526;-61
2020/12/30 03:48:48;;;;;;;12.48;6.40;;;4.00;99.90;;;;;;5119674;27;20027;-60
2020/12/30 03:51:13;;;;;;;14.70;6.13;;;4.00;99.90;;;;;;5119514;27;20165;-61
2020/12/30 03:53:39;;;;;;;16.55;7.07;;;4.00;99.90;;;;;;5114247;27;20031;-60
2020/12/30 03:56:04;;;;;;;12.18;5.70;;;4.00;99.90;;;;;;5091316;28;20099;-60
2020/12/30 03:58:30;;;;;;;10.13;6.30;;;4.00;99.90;;;;;;5105823;27;20602;-60
2020/12/30 04:00:55;;;;;;;9.45;5.78;;;4.00;99.90;;;;;;5111341;27;20031;-60
2020/12/30 04:03:21;;;;;;;11.02;5.82;;;4.00;99.90;;;;;;5113242;27;20410;-61
2020/12/30 04:05:49;;;;;;;11.95;6.10;;;4.00;99.90;;;;;;5103693;28;20421;-61
2020/12/30 04:08:15;;;;;;;10.77;6.03;;;4.10;99.90;;;;;;5106132;28;20024;-60
2020/12/30 04:10:40;;;;;;;10.13;5.28;;;4.10;99.90;;;;;;5111621;27;20507;-61
2020/12/30 04:13:06;;;;;;;9.13;4.78;;;4.20;99.90;;;;;;5108304;28;20040;-61
2020/12/30 04:15:31;;;;;;;11.70;5.15;;;4.20;99.90;;;;;;5123598;27;20123;-60
2020/12/30 04:17:57;;;;;;;9.77;5.18;;;4.30;99.90;;;;;;5116075;27;20172;-62
2020/12/30 04:20:22;;;;;;;8.65;4.55;;;4.30;99.90;;;;;;5164889;22;20471;-60
2020/12/30 04:22:48;;;;;;;9.15;4.25;;;4.20;99.90;;;;;;5152494;27;20105;-60
2020/12/30 04:25:13;;;;;;;8.35;3.30;;;4.20;99.90;;;;;;5153231;27;20038;-59
2020/12/30 04:27:39;;;;;;;5.85;3.15;;;4.20;99.90;;;;;;5148673;27;20019;-59
2020/12/30 04:30:05;;;;;;;11.80;3.45;;;4.20;99.90;;;;;;5157128;27;20019;-59
2020/12/30 04:32:30;;;;;;;6.93;3.38;;;4.20;99.90;;;;;;5155392;27;20404;-60
2020/12/30 04:34:56;;;;;;;5.55;3.38;;;4.20;99.90;;;;;;5151735;27;20075;-59
2020/12/30 04:37:21;;;;;;;8.55;3.70;;;4.20;99.90;;;;;;5147181;27;20377;-59
2020/12/30 04:39:47;;;;;;;11.70;4.10;;;4.20;99.90;;;;;;5134456;27;20581;-59
2020/12/30 04:42:16;;;;;;;6.47;3.70;;;4.20;99.90;;;;;;5143876;27;20035;-60
2020/12/30 04:44:46;;;;;;;6.55;3.67;;;4.20;99.90;;;;;;5152533;27;20091;-60
2020/12/30 04:47:11;;;;;;;6.75;3.75;;;4.20;99.90;;;;;;5152683;27;20015;-60
2020/12/30 04:49:37;;;;;;;7.63;3.70;;;4.10;99.90;;;;;;5153837;27;20106;-60
2020/12/30 04:52:03;;;;;;;7.35;3.58;;;4.10;99.90;;;;;;5141157;27;21146;-60
2020/12/30 04:54:30;;;;;;;8.35;4.13;;;4.10;99.90;;;;;;5151578;27;20023;-59
2020/12/30 04:57:02;;;;;;;9.18;4.10;;;4.10;99.90;;;;;;5155734;27;20041;-59
2020/12/30 04:59:41;;;;;;;7.43;3.45;;;4.10;99.90;;;;;;5154154;27;20061;-59
2020/12/30 05:02:09;;;;;;;5.43;2.97;;;4.10;99.90;;;;;;5152618;27;20038;-60
2020/12/30 05:04:36;;;;;;;4.32;2.67;;;4.20;99.90;;;;;;5153523;27;20031;-59
2020/12/30 05:07:12;;;;;;;6.20;3.08;;;4.10;99.90;;;;;;5153839;27;20019;-60
2020/12/30 05:09:40;;;;;;;9.40;2.78;;;4.20;99.90;;;;;;5151848;27;20023;-59
2020/12/30 05:12:14;;;;;;;6.05;2.97;;;4.20;99.90;;;;;;5149444;27;20058;-59
2020/12/30 05:14:40;;;;;;;11.40;2.80;;;4.20;99.90;;;;;;5146816;27;20513;-59
2020/12/30 05:17:07;;;;;;;6.20;2.63;;;4.30;99.90;;;;;;5153311;27;20039;-60
2020/12/30 05:19:33;;;;;;;5.97;2.78;;;4.40;99.90;;;;;;5148946;27;20073;-60
2020/12/30 05:21:58;;;;;;;3.88;2.30;;;4.40;99.90;;;;;;5169543;27;20491;-59
2020/12/30 05:24:24;;;;;;;3.78;2.08;;;4.50;99.90;;;;;;5169816;27;20121;-60
2020/12/30 05:26:50;;;;;;;6.22;2.15;;;4.60;99.90;;;;;;5163286;27;20029;-60
2020/12/30 05:29:16;;;;;;;8.13;2.30;;;4.60;99.90;;;;;;5144906;27;20094;-61
2020/12/30 05:31:42;;;;;;;4.22;2.13;;;4.60;99.90;;;;;;5142815;27;20485;-60
2020/12/30 05:34:08;;;;;;;9.93;2.83;;;4.60;99.90;;;;;;5153840;27;20026;-58
2020/12/30 05:36:34;;;;;;;4.85;2.55;;;4.50;99.90;;;;;;5168088;27;20030;-60
2020/12/30 05:38:59;;;;;;;6.93;3.05;;;4.50;99.90;;;;;;5155060;27;20377;-60
2020/12/30 05:41:25;;;;;;;6.57;3.72;;;4.60;99.90;;;;;;5153673;27;20027;-58
2020/12/30 05:43:50;;;;;;;15.07;4.35;;;4.60;99.90;;;;;;5158059;27;20026;-60
2020/12/30 05:46:26;;;;;;;13.77;5.38;;;4.60;99.90;;;;;;5171029;27;20876;-59
2020/12/30 05:48:55;;;;;;;15.20;5.47;;;4.60;99.90;;;;;;5157852;27;20035;-59
2020/12/30 05:51:26;;;;;;;15.43;6.10;;;4.60;99.90;;;;;;5150328;27;20023;-59
2020/12/30 05:54:12;;;;;;;14.30;7.07;;;4.60;99.90;;;;;;5154940;27;20029;-59
2020/12/30 05:56:38;;;;;;;17.67;7.13;;;4.60;99.90;;;;;;5165587;27;20014;-60
2020/12/30 05:59:05;;;;;;;20.17;8.98;;;4.50;99.90;;;;;;5167063;27;20018;-59
2020/12/30 06:01:34;;;;;;;22.40;9.57;;;4.50;99.90;;;;;;5168920;27;20046;-59
2020/12/30 06:04:18;;;;;;;25.70;9.90;;;4.60;99.90;;;;;;5149401;27;20015;-59
2020/12/30 06:06:44;;;;;;;25.92;10.68;;;4.50;99.90;;;;;;5152653;27;20011;-60
2020/12/30 06:09:18;;;;;;;25.40;10.73;;;4.50;99.90;;;;;;5166373;27;20416;-59
2020/12/30 06:11:52;;;;;;;21.42;10.95;;;4.60;99.90;;;;;;5162628;27;20011;-59
2020/12/30 06:14:19;;;;;;;31.13;13.07;;;4.60;99.90;;;;;;5165657;27;20052;-61
2020/12/30 06:16:45;;;;;;;26.75;12.38;;;4.50;99.90;;;;;;5160334;27;20023;-58
2020/12/30 06:19:12;;;;;;;33.38;12.93;;;4.50;99.90;;;;;;5155163;27;20035;-58
2020/12/30 06:21:45;;;;;;;29.20;11.82;;;4.50;99.90;;;;;;5151797;27;20028;-59
2020/12/30 06:24:13;;;;;;;31.40;12.35;;;4.60;99.90;;;;;;5158559;27;20026;-59
2020/12/30 06:26:39;;;;;;;30.02;13.63;;;4.60;99.90;;;;;;5168163;27;20057;-58
2020/12/30 06:29:10;;;;;;;32.92;13.60;;;4.60;99.90;;;;;;5152916;27;20027;-59
2020/12/30 06:31:43;;;;;;;32.95;14.55;;;4.60;99.90;;;;;;5156313;27;20026;-58
2020/12/30 06:34:09;;;;;;;38.92;15.90;;;4.60;99.90;;;;;;5152830;27;20014;-64
2020/12/30 06:36:35;;;;;;;43.55;17.05;;;4.60;99.90;;;;;;5158532;27;20099;-59
2020/12/30 06:39:14;;;;;;;40.42;16.27;;;4.60;99.90;;;;;;5159103;27;20050;-60
2020/12/30 06:41:59;;;;;;;38.78;15.85;;;4.50;99.90;;;;;;5144626;27;20014;-59
2020/12/30 06:44:45;;;;;;;40.78;17.20;;;4.60;99.90;;;;;;5149406;27;20117;-60
2020/12/30 06:47:11;;;;;;;44.47;17.88;;;4.60;99.90;;;;;;5156304;27;20034;-60
2020/12/30 06:49:37;;;;;;;44.72;16.63;;;4.60;99.90;;;;;;5161961;27;20019;-59
2020/12/30 06:52:29;;;;;;;60.15;21.17;;;4.50;99.90;;;;;;5169742;27;20023;-58
2020/12/30 06:54:54;;;;;;;51.53;20.27;;;4.40;99.90;;;;;;5148532;27;20064;-59
2020/12/30 06:57:36;;;;;;;62.92;21.42;;;4.40;99.90;;;;;;5156520;27;20425;-63
2020/12/30 07:00:34;;;;;;;47.25;17.50;;;4.40;99.90;;;;;;5151772;27;20022;-60
2020/12/30 07:03:17;;;;;;;32.50;14.35;;;4.40;99.90;;;;;;5137806;27;20030;-60
2020/12/30 07:05:44;;;;;;;31.23;14.63;;;4.40;99.90;;;;;;5158486;27;20089;-60
2020/12/30 07:08:10;;;;;;;28.83;14.20;;;4.50;99.90;;;;;;5154342;27;20118;-60
2020/12/30 07:10:40;;;;;;;41.53;18.20;;;4.50;99.90;;;;;;5140523;27;20041;-60
2020/12/30 07:13:06;;;;;;;39.33;18.58;;;4.60;99.90;;;;;;5161230;27;20011;-60
2020/12/30 07:15:32;;;;;;;46.42;19.95;;;4.60;99.90;;;;;;5163846;27;20033;-59
2020/12/30 07:17:58;;;;;;;49.58;20.38;;;4.50;99.90;;;;;;5159143;27;20027;-59
2020/12/30 07:20:24;;;;;;;49.53;19.10;;;4.60;99.90;;;;;;5160440;27;20043;-59
2020/12/30 07:22:50;;;;;;;49.08;22.05;;;4.60;99.90;;;;;;5152587;27;20023;-60
2020/12/30 07:25:21;;;;;;;45.25;20.02;;;4.70;99.90;;;;;;5153452;27;20551;-60
2020/12/30 07:27:46;;;;;;;46.70;20.05;;;4.70;99.90;;;;;;5153031;27;20418;-61
2020/12/30 07:30:12;;;;;;;53.60;20.95;;;4.60;99.90;;;;;;5152478;27;20027;-61
2020/12/30 07:32:37;;;;;;;56.67;20.85;;;4.70;99.90;;;;;;5152226;27;20022;-59
2020/12/30 07:35:06;;;;;;;55.63;22.17;;;4.70;99.90;;;;;;5158819;27;20487;-60
2020/12/30 07:37:32;;;;;;;43.03;20.70;;;4.80;99.90;;;;;;5174071;27;20034;-60
2020/12/30 07:39:57;;;;;;;59.20;21.77;;;4.80;99.90;;;;;;5152777;27;20705;-60
2020/12/30 07:42:24;;;;;;;52.28;19.83;;;4.80;99.90;;;;;;5163311;27;20022;-60
2020/12/30 07:44:52;;;;;;;49.63;20.15;;;4.90;99.90;;;;;;5167696;27;20025;-60
2020/12/30 07:47:19;;;;;;;49.58;21.15;;;4.90;99.90;;;;;;5154139;27;20047;-60
2020/12/30 07:49:45;;;;;;;65.45;22.13;;;4.90;99.90;;;;;;5164166;27;20033;-59
2020/12/30 07:52:11;;;;;;;57.45;23.70;;;4.90;99.90;;;;;;5168134;27;20022;-59
2020/12/30 07:54:37;;;;;;;45.28;20.63;;;4.80;99.90;;;;;;5163261;27;20035;-59
2020/12/30 07:57:11;;;;;;;49.88;20.65;;;4.80;99.90;;;;;;5157310;27;20071;-59
2020/12/30 07:59:38;;;;;;;37.90;18.02;;;4.80;99.90;;;;;;5165396;27;20484;-60
2020/12/30 08:02:05;;;;;;;38.40;15.98;;;4.80;99.90;;;;;;5154231;27;20384;-60
2020/12/30 08:04:35;;;;;;;36.25;18.00;;;4.80;99.90;;;;;;5163316;27;20115;-60
2020/12/30 08:07:07;;;;;;;34.40;16.00;;;4.90;99.90;;;;;;5158138;27;20015;-60
2020/12/30 08:09:34;;;;;;;;;;;4.90;99.90;;;;;;5160791;27;20031;-59
2020/12/30 08:12:05;;;;;;;30.10;13.43;;;4.90;99.90;;;;;;5159770;27;19903;-59
2020/12/30 08:14:32;;;;;;;28.05;14.55;;;4.90;99.90;;;;;;5165045;27;20019;-59
2020/12/30 08:17:06;;;;;;;36.75;15.45;;;4.90;99.90;;;;;;5155121;27;20023;-61
2020/12/30 08:19:39;;;;;;;31.83;14.15;;;4.90;99.90;;;;;;5163900;27;20051;-60
2020/12/30 08:22:07;;;;;;;32.35;14.30;;;4.90;99.90;;;;;;5166429;27;20027;-60
2020/12/30 08:24:35;;;;;;;28.08;13.95;;;5.00;99.90;;;;;;5136133;27;20097;-60
2020/12/30 08:27:02;;;;;;;31.83;13.52;;;5.10;99.90;;;;;;5154676;27;20019;-59
2020/12/30 08:29:37;;;;;;;29.05;13.35;;;5.10;99.90;;;;;;5160144;27;20022;-60
2020/12/30 08:32:11;;;;;;;29.67;13.57;;;5.10;99.90;;;;;;5163986;27;20540;-59
2020/12/30 08:34:41;;;;;;;34.88;14.15;;;5.10;99.90;;;;;;5153525;27;20026;-60
2020/12/30 08:37:10;;;;;;;32.67;15.07;;;5.00;99.90;;;;;;5153491;27;20018;-59
2020/12/30 08:39:52;;;;;;;44.75;16.95;;;4.90;99.90;;;;;;5154652;27;20105;-61
2020/12/30 08:42:34;;;;;;;43.42;15.30;;;4.90;99.90;;;;;;5154661;27;20019;-60
2020/12/30 08:45:04;;;;;;;45.43;17.50;;;4.90;99.90;;;;;;5159339;27;20110;-60
2020/12/30 08:47:38;;;;;;;45.72;18.48;;;4.90;99.90;;;;;;5162448;27;20019;-60
2020/12/30 08:50:10;;;;;;;45.08;17.67;;;5.00;99.90;;;;;;5149022;27;20041;-60
2020/12/30 08:52:40;;;;;;;42.25;18.27;;;5.00;99.90;;;;;;5162805;27;20025;-60
2020/12/30 08:55:05;;;;;;;43.63;18.23;;;4.90;99.90;;;;;;5152576;27;20488;-61
2020/12/30 08:57:31;;;;;;;38.55;14.45;;;4.80;99.90;;;;;;5154729;27;20056;-61
2020/12/30 09:00:15;;;;;;;43.50;16.77;;;4.90;99.90;;;;;;5151511;27;20039;-59
2020/12/30 09:02:43;;;;;;;35.38;16.08;;;5.00;99.90;;;;;;5150309;27;20015;-59
2020/12/30 09:05:09;;;;;;;46.10;18.73;;;5.10;99.90;;;;;;5153133;27;20031;-60
2020/12/30 09:07:36;;;;;;;47.40;18.40;;;5.00;99.90;;;;;;5160536;27;20064;-61
2020/12/30 09:10:03;;;;;;;53.40;19.58;;;5.10;99.90;;;;;;5160682;27;20023;-60
2020/12/30 09:12:28;;;;;;;58.55;19.83;;;5.00;99.90;;;;;;5157388;27;20480;-60
2020/12/30 09:14:54;;;;;;;38.83;18.20;;;5.00;99.90;;;;;;5155545;27;20050;-61
2020/12/30 09:17:19;;;;;;;40.35;17.98;;;4.90;99.90;;;;;;5154245;27;20030;-59
2020/12/30 09:19:45;;;;;;;27.90;12.18;;;4.90;99.90;;;;;;5155252;27;20054;-59
2020/12/30 09:22:11;;;;;;;28.23;11.52;;;4.80;99.90;;;;;;5154199;27;20057;-61
2020/12/30 09:24:42;;;;;;;19.25;8.90;;;4.90;99.90;;;;;;5160379;27;20543;-60
2020/12/30 09:27:22;;;;;;;20.15;8.57;;;4.90;99.90;;;;;;5165908;27;20392;-60
2020/12/30 09:30:11;;;;;;;18.30;8.13;;;4.80;99.90;;;;;;5158284;27;20121;-60
2020/12/30 09:32:38;;;;;;;19.55;9.88;;;4.90;99.90;;;;;;5157341;27;20094;-59
2020/12/30 09:35:06;;;;;;;20.95;10.30;;;4.90;99.90;;;;;;5141735;27;20049;-62
2020/12/30 09:37:32;;;;;;;17.90;7.90;;;4.90;99.90;;;;;;5165881;27;20113;-59
2020/12/30 09:40:14;;;;;;;21.77;8.85;;;5.00;99.90;;;;;;5153503;27;20468;-60
2020/12/30 09:42:41;;;;;;;18.60;8.07;;;5.10;99.90;;;;;;5156122;27;20033;-60
2020/12/30 09:45:10;;;;;;;19.60;9.95;;;5.10;99.90;;;;;;5156068;27;20082;-60
2020/12/30 09:47:37;;;;;;;23.80;11.10;;;5.20;99.90;;;;;;5156664;27;20026;-60
2020/12/30 09:50:04;;;;;;;27.85;13.13;;;5.20;99.90;;;;;;5156007;27;20074;-60
2020/12/30 09:52:44;;;;;;;32.90;12.93;;;5.30;99.90;;;;;;5155885;27;20019;-60
2020/12/30 09:55:11;;;;;;;33.50;13.82;;;5.30;99.90;;;;;;5153692;27;20052;-60
2020/12/30 09:57:38;;;;;;;33.53;13.85;;;5.30;99.90;;;;;;5156335;27;20091;-59
2020/12/30 10:00:05;;;;;;;23.98;11.50;;;5.30;99.90;;;;;;5156133;27;20027;-60
2020/12/30 10:02:31;;;;;;;38.70;13.98;;;5.30;99.90;;;;;;5155056;27;20026;-60
2020/12/30 10:04:56;;;;;;;23.00;11.65;;;5.30;99.90;;;;;;5153611;27;20018;-60
2020/12/30 10:07:22;;;;;;;25.42;11.07;;;5.40;99.90;;;;;;5155228;27;20468;-60
2020/12/30 10:09:48;;;;;;;22.45;9.82;;;5.50;99.90;;;;;;5155796;27;20363;-61
2020/12/30 10:12:13;;;;;;;24.90;10.85;;;5.60;99.90;;;;;;5156727;27;20010;-60
2020/12/30 10:14:39;;;;;;;19.42;9.52;;;5.70;99.90;;;;;;5168855;27;20034;-60
2020/12/30 10:17:08;;;;;;;28.08;11.10;;;5.80;99.90;;;;;;5178490;27;20058;-60
2020/12/30 10:19:34;;;;;;;27.25;10.93;;;5.90;99.90;;;;;;5178432;27;20049;-58
2020/12/30 10:21:59;;;;;;;23.40;10.43;;;6.00;99.90;;;;;;5172703;27;20023;-59
2020/12/30 10:24:25;;;;;;;26.38;10.55;;;6.10;99.90;;;;;;5165399;27;20026;-60
2020/12/30 10:26:50;;;;;;;17.25;9.13;;;6.10;99.90;;;;;;5168900;27;20054;-62
2020/12/30 10:29:16;;;;;;;11.60;7.20;;;6.00;99.90;;;;;;5163040;27;20543;-61
2020/12/30 10:31:41;;;;;;;16.67;7.35;;;6.00;99.90;;;;;;5154753;27;20023;-60
2020/12/30 10:34:07;;;;;;;13.00;6.07;;;6.10;99.90;;;;;;5158943;27;20321;-59
2020/12/30 10:36:32;;;;;;;14.40;7.22;;;6.00;99.90;;;;;;5158602;27;20045;-59
2020/12/30 10:39:00;;;;;;;14.55;5.93;;;6.10;99.90;;;;;;5154016;27;20102;-60
2020/12/30 10:41:26;;;;;;;11.02;5.88;;;6.20;99.90;;;;;;5157421;27;20030;-60
2020/12/30 10:43:52;;;;;;;20.02;6.38;;;6.20;99.90;;;;;;5161475;27;20113;-59
2020/12/30 10:46:19;;;;;;;16.02;5.65;;;6.20;99.90;;;;;;5159034;27;20071;-60
2020/12/30 10:48:46;;;;;;;11.75;5.35;;;6.40;99.90;;;;;;5164347;27;20372;-59
2020/12/30 10:51:16;;;;;;;12.73;5.70;;;6.40;99.90;;;;;;5167517;27;20025;-59
2020/12/30 10:53:42;;;;;;;17.00;5.63;;;6.30;99.90;;;;;;5163061;27;20046;-59
2020/12/30 10:56:09;;;;;;;15.02;5.78;;;6.30;99.90;;;;;;5168478;27;20019;-60
2020/12/30 10:58:36;;;;;;;10.73;4.80;;;6.40;99.90;;;;;;5158973;27;20082;-60
2020/12/30 11:01:05;;;;;;;15.52;4.22;;;6.50;99.90;;;;;;5158406;27;20019;-59
2020/12/30 11:03:30;;;;;;;17.80;4.10;;;6.50;99.90;;;;;;5160469;27;20130;-60
2020/12/30 11:05:59;;;;;;;19.35;4.68;;;6.50;99.90;;;;;;5155331;27;20023;-59
2020/12/30 11:08:26;;;;;;;10.18;4.53;;;6.50;99.90;;;;;;5156439;27;20260;-61
2020/12/30 11:10:51;;;;;;;15.57;4.28;;;6.50;99.90;;;;;;5157736;27;20018;-60
2020/12/30 11:13:17;;;;;;;7.95;3.47;;;6.50;99.90;;;;;;5163026;27;20105;-59
2020/12/30 11:15:42;;;;;;;18.60;4.30;;;6.40;99.90;;;;;;5160830;27;20110;-59
2020/12/30 11:18:08;;;;;;;14.75;4.22;;;6.50;99.90;;;;;;5152179;27;20071;-60
2020/12/30 11:20:34;;;;;;;13.10;2.85;;;6.40;99.90;;;;;;5160591;27;20065;-59
2020/12/30 11:22:59;;;;;;;9.50;3.40;;;6.30;99.90;;;;;;5159867;27;20023;-60
2020/12/30 11:25:25;;;;;;;11.75;1.90;;;6.20;99.90;;;;;;5152889;27;20019;-59
2020/12/30 11:27:51;;;;;;;6.88;1.40;;;6.10;99.90;;;;;;5159934;27;20487;-60
2020/12/30 11:30:18;;;;;;;4.70;1.27;;;6.10;99.90;;;;;;5158180;27;20464;-60
2020/12/30 11:32:44;;;;;;;8.32;2.63;;;6.10;99.90;;;;;;5156607;27;20026;-60
2020/12/30 11:35:10;;;;;;;6.60;2.75;;;6.00;99.90;;;;;;5156606;27;20515;-60
2020/12/30 11:37:36;;;;;;;3.70;2.58;;;5.70;99.90;;;;;;5156331;27;20035;-61
2020/12/30 11:40:02;;;;;;;7.47;2.35;;;5.50;99.90;;;;;;5159856;27;20027;-60
2020/12/30 11:42:28;;;;;;;8.88;2.00;;;5.50;99.90;;;;;;5155666;27;20064;-60
2020/12/30 11:44:53;;;;;;;6.28;2.00;;;5.60;99.90;;;;;;5155702;27;20026;-60
2020/12/30 11:47:19;;;;;;;6.90;1.88;;;5.80;99.90;;;;;;5154884;27;20484;-61
2020/12/30 11:49:44;;;;;;;3.97;1.80;;;6.10;99.90;;;;;;5155804;27;20039;-59
2020/12/30 11:52:11;;;;;;;5.05;1.73;;;6.20;99.90;;;;;;5155593;27;20018;-60
2020/12/30 11:54:37;;;;;;;4.70;2.00;;;6.20;99.90;;;;;;5154382;27;20457;-61
2020/12/30 11:57:02;;;;;;;2.65;1.83;;;6.30;99.90;;;;;;5157119;27;20039;-60
2020/12/30 11:59:28;;;;;;;8.38;2.03;;;6.40;99.90;;;;;;5152370;27;20069;-61
2020/12/30 12:01:53;;;;;;;11.38;2.15;;;6.40;99.90;;;;;;5155702;27;20391;-60
2020/12/30 12:04:19;;;;;;;7.85;2.70;;;6.30;99.90;;;;;;5156432;27;20487;-59
2020/12/30 12:06:44;;;;;;;5.03;1.83;;;6.40;99.90;;;;;;5156798;27;20280;-61
2020/12/30 12:09:10;;;;;;;6.63;1.50;;;6.50;99.90;;;;;;5155230;27;20030;-60
2020/12/30 12:11:35;;;;;;;7.68;1.75;;;6.50;99.90;;;;;;5154441;27;20218;-60
2020/12/30 12:14:01;;;;;;;11.50;1.85;;;6.40;99.90;;;;;;5155158;27;20046;-60
2020/12/30 12:16:27;;;;;;;7.38;1.50;;;6.50;99.90;;;;;;5155191;27;20057;-60
2020/12/30 12:18:52;;;;;;;9.48;1.80;;;6.40;99.90;;;;;;5155037;27;20049;-60
2020/12/30 12:21:18;;;;;;;15.55;2.45;;;6.40;99.90;;;;;;5155308;27;20603;-61
2020/12/30 12:23:43;;;;;;;4.95;1.67;;;6.40;99.90;;;;;;5153920;27;20493;-59
2020/12/30 12:26:09;;;;;;;6.18;1.58;;;6.40;99.90;;;;;;5168436;27;20101;-60
2020/12/30 12:28:56;;;;;;;5.72;1.40;;;6.50;99.90;;;;;;5163417;27;20488;-59
2020/12/30 12:31:22;;;;;;;9.18;1.85;;;6.40;99.90;;;;;;5147723;27;20059;-60
2020/12/30 12:33:48;;;;;;;5.47;1.70;;;6.40;99.90;;;;;;5153517;27;20034;-60
2020/12/30 12:36:15;;;;;;;7.10;1.58;;;6.40;99.90;;;;;;5160585;27;20041;-61
2020/12/30 12:38:41;;;;;;;16.55;1.60;;;6.30;99.90;;;;;;5159105;27;20138;-60
2020/12/30 12:41:07;;;;;;;4.85;1.20;;;6.30;99.90;;;;;;5154656;27;20037;-60
2020/12/30 12:43:32;;;;;;;3.13;1.00;;;6.30;99.90;;;;;;5154519;27;20031;-61
2020/12/30 12:45:58;;;;;;;8.93;1.40;;;6.30;99.90;;;;;;5154629;27;20018;-60
2020/12/30 12:48:23;;;;;;;3.58;0.95;;;6.30;99.90;;;;;;5153407;27;20022;-61